createdAt,value
2022-08-12T00:02:58.712Z,18.19
2022-08-12T00:06:21.479Z,18.11
2022-08-12T00:09:44.115Z,18.06
2022-08-12T00:13:05.337Z,18.08
2022-08-12T00:16:26.303Z,18.07
2022-08-12T00:19:47.499Z,18.04
2022-08-12T00:23:09.697Z,17.99
2022-08-12T00:26:36.502Z,17.92
2022-08-12T00:29:58.455Z,17.89
2022-08-12T00:33:19.623Z,17.89
2022-08-12T00:36:48.861Z,17.81
2022-08-12T00:40:12.163Z,17.75
2022-08-12T00:43:18.576Z,17.66
2022-08-12T00:46:36.597Z,17.58
2022-08-12T00:49:42.152Z,17.52
2022-08-12T00:52:47.595Z,17.50
2022-08-12T00:55:58.270Z,17.51
2022-08-12T00:59:04.925Z,17.43
2022-08-12T01:02:12.136Z,17.42
2022-08-12T01:05:37.111Z,17.36
2022-08-12T01:08:59.979Z,17.32
2022-08-12T01:12:05.832Z,17.27
2022-08-12T01:15:14.626Z,17.23
2022-08-12T01:18:21.572Z,17.15
2022-08-12T01:22:04.725Z,17.08
2022-08-12T01:25:15.142Z,17.05
2022-08-12T01:28:22.115Z,16.99
2022-08-12T01:31:27.197Z,16.92
2022-08-12T01:34:37.528Z,16.88
2022-08-12T01:37:49.968Z,16.79
2022-08-12T01:41:00.189Z,16.65
2022-08-12T01:44:05.384Z,16.53
2022-08-12T01:47:30.524Z,16.35
2022-08-12T01:51:06.395Z,16.19
2022-08-12T01:54:14.072Z,15.97
2022-08-12T01:57:58.044Z,15.83
2022-08-12T02:01:05.263Z,15.68
2022-08-12T02:04:42.474Z,15.68
2022-08-12T02:08:26.331Z,15.53
2022-08-12T02:11:34.819Z,15.42
2022-08-12T02:14:57.317Z,15.26
2022-08-12T02:18:22.484Z,15.14
2022-08-12T02:21:40.524Z,15.11
2022-08-12T02:24:47.407Z,15.01
2022-08-12T02:27:54.867Z,14.97
2022-08-12T02:31:05.981Z,15.05
2022-08-12T02:34:12.626Z,15.10
2022-08-12T02:37:18.960Z,15.09
2022-08-12T02:40:24.531Z,15.13
2022-08-12T02:43:38.473Z,15.05
2022-08-12T02:46:49.663Z,15.01
2022-08-12T02:49:56.432Z,15.01
2022-08-12T02:53:01.263Z,14.99
2022-08-12T02:56:07.524Z,14.91
2022-08-12T02:59:16.456Z,14.91
2022-08-12T03:02:28.612Z,14.87
2022-08-12T03:05:38.681Z,14.85
2022-08-12T03:08:53.835Z,14.75
2022-08-12T03:12:07.702Z,14.71
2022-08-12T03:15:16.245Z,14.66
2022-08-12T03:18:31.244Z,14.68
2022-08-12T03:22:03.817Z,14.64
2022-08-12T03:25:05.519Z,14.63
2022-08-12T03:28:34.126Z,14.62
2022-08-12T03:31:37.802Z,14.57
2022-08-12T03:34:45.725Z,14.53
2022-08-12T03:37:51.976Z,14.50
2022-08-12T03:41:20.492Z,14.51
2022-08-12T03:44:49.946Z,14.49
2022-08-12T03:48:19.091Z,14.40
2022-08-12T03:51:41.947Z,14.30
2022-08-12T03:55:03.084Z,14.32
2022-08-12T03:58:25.755Z,14.34
2022-08-12T04:01:29.439Z,14.37
2022-08-12T04:04:35.749Z,14.27
2022-08-12T04:07:58.443Z,14.22
2022-08-12T04:11:19.968Z,14.27
2022-08-12T04:14:23.577Z,14.28
2022-08-12T04:17:28.703Z,14.24
2022-08-12T04:20:33.042Z,14.26
2022-08-12T04:23:39.475Z,14.28
2022-08-12T04:26:43.131Z,14.30
2022-08-12T04:30:21.139Z,14.32
2022-08-12T04:33:12.318Z,14.39
2022-08-12T04:36:16.072Z,14.45
2022-08-12T04:39:23.259Z,14.43
2022-08-12T04:42:26.953Z,14.45
2022-08-12T04:45:32.992Z,14.49
2022-08-12T04:48:36.780Z,14.57
2022-08-12T04:51:41.944Z,14.66
2022-08-12T04:54:58.912Z,14.76
2022-08-12T04:58:02.814Z,14.86
2022-08-12T05:01:06.995Z,14.87
2022-08-12T05:04:11.874Z,15.00
2022-08-12T05:07:15.551Z,15.10
2022-08-12T05:10:33.594Z,15.27
2022-08-12T05:13:42.284Z,15.47
2022-08-12T05:16:46.183Z,15.65
2022-08-12T05:19:49.769Z,15.78
2022-08-12T05:23:12.464Z,15.91
2022-08-12T05:26:19.074Z,16.09
2022-08-12T05:30:06.861Z,16.33
2022-08-12T05:32:46.357Z,16.52
2022-08-12T05:35:50.292Z,16.78
2022-08-12T05:38:59.904Z,17.14
2022-08-12T05:42:05.263Z,17.66
2022-08-12T05:45:10.956Z,18.14
2022-08-12T05:48:15.422Z,18.55
2022-08-12T05:51:19.604Z,18.81
2022-08-12T05:54:41.137Z,19.02
2022-08-12T05:57:55.372Z,19.45
2022-08-12T06:00:59.160Z,19.64
2022-08-12T06:04:22.828Z,19.91
2022-08-12T06:07:59.969Z,19.97
2022-08-12T06:10:50.790Z,20.22
2022-08-12T06:13:58.531Z,20.15
2022-08-12T06:17:02.663Z,20.15
2022-08-12T06:20:27.770Z,20.11
2022-08-12T06:23:33.628Z,20.25
2022-08-12T06:26:37.323Z,20.45
2022-08-12T06:30:09.134Z,20.71
2022-08-12T06:33:24.934Z,20.86
2022-08-12T06:36:33.518Z,21.02
2022-08-12T06:39:37.498Z,21.18
2022-08-12T06:42:52.234Z,21.31
2022-08-12T06:45:58.740Z,21.59
2022-08-12T06:49:02.478Z,21.63
2022-08-12T06:52:07.474Z,21.66
2022-08-12T06:55:14.015Z,21.60
2022-08-12T06:58:20.482Z,21.65
2022-08-12T07:01:25.656Z,21.79
2022-08-12T07:04:37.928Z,21.95
2022-08-12T07:07:42.042Z,22.03
2022-08-12T07:10:59.342Z,22.08
2022-08-12T07:14:12.631Z,22.46
2022-08-12T07:17:18.409Z,22.79
2022-08-12T07:20:50.291Z,22.96
2022-08-12T07:23:46.121Z,22.97
2022-08-12T07:26:49.746Z,23.23
2022-08-12T07:30:03.480Z,23.39
2022-08-12T07:33:11.773Z,23.60
2022-08-12T07:36:16.114Z,23.70
2022-08-12T07:39:19.777Z,23.88
2022-08-12T07:42:23.431Z,23.56
2022-08-12T07:45:30.771Z,23.38
2022-08-12T07:48:41.403Z,23.81
2022-08-12T07:51:46.580Z,24.03
2022-08-12T07:54:50.275Z,24.23
2022-08-12T07:57:59.319Z,24.33
2022-08-12T08:01:04.656Z,24.39
2022-08-12T08:04:34.523Z,24.63
2022-08-12T08:07:38.793Z,25.17
2022-08-12T08:10:42.690Z,25.33
2022-08-12T08:13:47.237Z,25.76
2022-08-12T08:16:51.027Z,26.17
2022-08-12T08:20:03.016Z,25.92
2022-08-12T08:23:11.479Z,26.30
2022-08-12T08:26:16.133Z,26.39
2022-08-12T08:29:22.700Z,26.60
2022-08-12T08:32:26.437Z,26.92
2022-08-12T08:35:46.930Z,26.56
2022-08-12T08:38:57.823Z,26.84
2022-08-12T08:42:20.688Z,27.40
2022-08-12T08:45:24.726Z,27.73
2022-08-12T08:48:31.205Z,27.45
2022-08-12T08:51:36.795Z,27.66
2022-08-12T08:54:40.840Z,27.75
2022-08-12T08:57:49.411Z,27.16
2022-08-12T09:00:53.439Z,28.02
2022-08-12T09:05:07.917Z,27.73
2022-08-12T09:07:51.872Z,27.82
2022-08-12T09:10:45.828Z,28.35
2022-08-12T09:14:11.333Z,28.55
2022-08-12T09:17:13.896Z,28.47
2022-08-12T09:20:27.491Z,28.47
2022-08-12T09:23:58.492Z,28.12
2022-08-12T09:26:59.466Z,29.18
2022-08-12T09:30:11.842Z,29.13
2022-08-12T09:34:26.691Z,29.50
2022-08-12T09:36:58.092Z,28.98
2022-08-12T09:40:55.835Z,28.74
2022-08-12T09:43:53.773Z,28.89
2022-08-12T09:47:10.501Z,28.28
2022-08-12T09:50:20.499Z,27.89
2022-08-12T09:53:29.478Z,27.71
2022-08-12T09:57:02.582Z,27.87
2022-08-12T10:00:16.904Z,27.73
2022-08-12T10:03:32.204Z,27.70
2022-08-12T10:06:53.805Z,27.85
2022-08-12T10:09:59.356Z,27.86
2022-08-12T10:13:35.116Z,27.79
2022-08-12T10:16:45.785Z,27.92
2022-08-12T10:19:52.373Z,28.16
2022-08-12T10:23:00.261Z,28.06
2022-08-12T10:26:38.728Z,28.07
2022-08-12T10:30:03.432Z,28.11
2022-08-12T10:33:18.389Z,28.24
2022-08-12T10:36:39.979Z,27.97
2022-08-12T10:40:05.778Z,28.05
2022-08-12T10:43:29.090Z,28.50
2022-08-12T10:46:55.358Z,28.56
2022-08-12T10:50:35.742Z,28.72
2022-08-12T10:53:43.991Z,28.70
2022-08-12T10:56:49.624Z,28.49
2022-08-12T11:00:30.697Z,28.59
2022-08-12T11:04:27.056Z,28.47
2022-08-12T11:07:05.238Z,28.55
2022-08-12T11:10:14.012Z,28.43
2022-08-12T11:13:17.617Z,28.32
2022-08-12T11:16:23.170Z,28.60
2022-08-12T11:19:28.963Z,28.70
2022-08-12T11:22:34.022Z,28.96
2022-08-12T11:25:56.536Z,28.97
2022-08-12T11:29:05.849Z,28.63
2022-08-12T11:32:25.132Z,28.81
2022-08-12T11:35:30.140Z,28.87
2022-08-12T11:38:36.247Z,28.99
2022-08-12T11:41:40.366Z,28.80
2022-08-12T11:44:46.708Z,28.99
2022-08-12T11:47:50.343Z,29.01
2022-08-12T11:51:00.618Z,29.12
2022-08-12T11:54:04.604Z,29.08
2022-08-12T11:58:06.940Z,29.41
2022-08-12T12:03:56.190Z,29.17
2022-08-12T12:07:07.398Z,29.60
2022-08-12T12:10:19.426Z,29.43
2022-08-12T12:14:08.460Z,29.43
2022-08-12T12:16:50.068Z,29.31
2022-08-12T12:19:55.650Z,29.34
2022-08-12T12:23:00.647Z,29.26
2022-08-12T12:26:07.888Z,29.40
2022-08-12T12:30:18.044Z,29.39
2022-08-12T12:32:35.884Z,29.57
2022-08-12T12:36:19.770Z,29.47
2022-08-12T12:39:10.469Z,29.31
2022-08-12T12:42:43.312Z,29.25
2022-08-12T12:45:50.845Z,29.42
2022-08-12T12:48:54.471Z,29.53
2022-08-12T12:52:18.383Z,29.63
2022-08-12T12:55:26.067Z,29.48
2022-08-12T12:58:40.131Z,29.60
2022-08-12T13:01:47.379Z,29.84
2022-08-12T13:04:54.561Z,29.47
2022-08-12T13:08:02.903Z,29.77
2022-08-12T13:11:09.330Z,29.85
2022-08-12T13:14:27.897Z,29.89
2022-08-12T13:18:02.486Z,29.86
2022-08-12T13:20:59.503Z,29.88
2022-08-12T13:24:09.952Z,29.98
2022-08-12T13:27:15.563Z,29.85
2022-08-12T13:30:23.708Z,30.07
2022-08-12T13:34:32.689Z,29.80
2022-08-12T13:36:53.994Z,29.80
2022-08-12T13:39:57.749Z,29.96
2022-08-12T13:43:07.113Z,29.92
2022-08-12T13:46:14.523Z,29.99
2022-08-12T13:49:54.729Z,30.06
2022-08-12T13:52:43.514Z,30.06
2022-08-12T13:56:01.980Z,29.99
2022-08-12T13:59:08.973Z,30.22
2022-08-12T14:02:13.490Z,30.08
2022-08-12T14:05:37.877Z,30.05
2022-08-12T14:08:42.806Z,30.08
2022-08-12T14:11:58.717Z,30.09
2022-08-12T14:15:05.095Z,30.15
2022-08-12T14:18:15.014Z,30.16
2022-08-12T14:21:22.509Z,30.26
2022-08-12T14:24:27.073Z,30.41
2022-08-12T14:28:02.518Z,30.25
2022-08-12T14:31:01.220Z,30.09
2022-08-12T14:34:05.303Z,30.14
2022-08-12T14:37:12.814Z,30.21
2022-08-12T14:40:18.640Z,30.38
2022-08-12T14:43:25.755Z,30.35
2022-08-12T14:46:36.769Z,30.40
2022-08-12T14:50:34.253Z,30.16
2022-08-12T15:00:14.858Z,30.37
2022-08-12T15:03:46.714Z,30.36
2022-08-12T15:06:52.928Z,30.48
2022-08-12T15:09:57.036Z,30.37
2022-08-12T15:13:07.152Z,30.34
2022-08-12T15:16:11.599Z,30.17
2022-08-12T15:20:11.241Z,30.12
2022-08-12T15:22:53.456Z,30.14
2022-08-12T15:26:02.760Z,30.16
2022-08-12T15:29:07.042Z,30.19
2022-08-12T15:32:15.992Z,30.40
2022-08-12T15:35:22.032Z,30.32
2022-08-12T15:38:28.266Z,30.25
2022-08-12T15:41:50.278Z,30.20
2022-08-12T15:44:54.492Z,30.14
2022-08-12T15:48:16.350Z,30.18
2022-08-12T15:51:58.773Z,30.21
2022-08-12T15:55:06.062Z,30.27
2022-08-12T15:58:16.905Z,30.09
2022-08-12T16:01:21.121Z,30.13
2022-08-12T16:04:24.746Z,30.17
2022-08-12T16:07:32.670Z,30.17
2022-08-12T16:10:42.684Z,30.30
2022-08-12T16:13:46.287Z,30.26
2022-08-12T16:16:51.321Z,30.11
2022-08-12T16:20:03.894Z,30.04
2022-08-12T16:23:26.630Z,29.80
2022-08-12T16:26:40.710Z,29.73
2022-08-12T16:29:53.102Z,29.77
2022-08-12T16:33:08.295Z,29.87
2022-08-12T16:36:18.888Z,29.71
2022-08-12T16:39:24.078Z,29.78
2022-08-12T16:42:28.777Z,29.69
2022-08-12T16:46:05.428Z,29.60
2022-08-12T16:49:04.105Z,29.51
2022-08-12T16:52:14.470Z,29.52
2022-08-12T16:55:21.498Z,29.43
2022-08-12T16:58:30.953Z,29.31
2022-08-12T17:01:36.774Z,29.25
2022-08-12T17:04:53.068Z,29.20
2022-08-12T17:07:57.605Z,29.13
2022-08-12T17:11:02.696Z,28.99
2022-08-12T17:14:12.113Z,28.95
2022-08-12T17:17:38.876Z,28.91
2022-08-12T17:20:47.299Z,28.80
2022-08-12T17:23:54.479Z,28.58
2022-08-12T17:27:01.166Z,28.53
2022-08-12T17:30:14.356Z,28.45
2022-08-12T17:33:24.811Z,28.35
2022-08-12T17:36:28.910Z,28.27
2022-08-12T17:39:36.514Z,28.18
2022-08-12T17:43:00.067Z,28.06
2022-08-12T17:46:12.764Z,28.00
2022-08-12T17:50:02.548Z,27.89
2022-08-12T17:52:49.975Z,27.80
2022-08-12T17:55:53.999Z,27.70
2022-08-12T17:58:59.889Z,27.58
2022-08-12T18:02:08.175Z,27.49
2022-08-12T18:05:12.254Z,27.38
2022-08-12T18:08:19.795Z,27.25
2022-08-12T18:12:05.476Z,27.13
2022-08-12T18:15:26.235Z,27.07
2022-08-12T18:18:36.900Z,26.95
2022-08-12T18:22:02.776Z,26.81
2022-08-12T18:26:12.211Z,26.67
2022-08-12T18:28:40.552Z,26.49
2022-08-12T18:31:59.052Z,26.31
2022-08-12T18:35:10.654Z,26.13
2022-08-12T18:38:16.724Z,25.99
2022-08-12T18:41:32.032Z,25.85
2022-08-12T18:44:37.788Z,25.74
2022-08-12T18:47:46.745Z,25.68
2022-08-12T18:51:09.579Z,25.60
2022-08-12T18:54:29.155Z,25.44
2022-08-12T18:58:06.919Z,25.31
2022-08-12T19:01:04.029Z,25.18
2022-08-12T19:04:09.076Z,25.04
2022-08-12T19:07:20.991Z,24.92
2022-08-12T19:10:25.198Z,24.86
2022-08-12T19:13:49.369Z,24.81
2022-08-12T19:16:54.820Z,24.72
2022-08-12T19:20:04.670Z,24.67
2022-08-12T19:23:16.244Z,24.53
2022-08-12T19:26:22.417Z,24.45
2022-08-12T19:29:39.665Z,24.40
2022-08-12T19:32:48.832Z,24.35
2022-08-12T19:36:08.278Z,24.19
2022-08-12T19:39:25.312Z,24.08
2022-08-12T19:42:37.922Z,23.97
2022-08-12T19:45:48.752Z,23.88
2022-08-12T19:48:58.737Z,23.80
2022-08-12T19:52:12.195Z,23.72
2022-08-12T19:55:27.923Z,23.64
2022-08-12T19:58:31.687Z,23.55
2022-08-12T20:01:41.143Z,23.50
2022-08-12T20:06:06.637Z,23.41
2022-08-12T20:08:33.145Z,23.36
2022-08-12T20:12:12.526Z,23.23
2022-08-12T20:15:07.464Z,23.17
2022-08-12T20:18:19.261Z,23.11
2022-08-12T20:21:40.545Z,23.03
2022-08-12T20:24:47.600Z,22.95
2022-08-12T20:28:02.962Z,22.79
2022-08-12T20:31:07.954Z,22.68
2022-08-12T20:34:12.698Z,22.59
2022-08-12T20:37:16.384Z,22.53
2022-08-12T20:40:22.216Z,22.46
2022-08-12T20:43:32.196Z,22.40
2022-08-12T20:46:36.487Z,22.33
2022-08-12T20:49:43.884Z,22.27
2022-08-12T20:52:49.164Z,22.19
2022-08-12T20:55:57.117Z,21.97
2022-08-12T20:59:05.980Z,21.80
2022-08-12T21:02:09.863Z,21.62
2022-08-12T21:05:41.193Z,21.47
2022-08-12T21:09:01.488Z,21.33
2022-08-12T21:12:31.733Z,21.30
2022-08-12T21:15:54.658Z,21.24
2022-08-12T21:18:57.491Z,21.14
2022-08-12T21:22:03.278Z,21.04
2022-08-12T21:25:14.516Z,20.95
2022-08-12T21:28:30.725Z,20.88
2022-08-12T21:32:37.106Z,20.82
2022-08-12T21:34:59.485Z,20.69
2022-08-12T21:38:08.640Z,20.61
2022-08-12T21:41:15.676Z,20.52
2022-08-12T21:44:24.117Z,20.45
2022-08-12T21:47:46.930Z,20.38
2022-08-12T21:50:57.291Z,20.28
2022-08-12T21:54:07.608Z,20.21
2022-08-12T21:57:14.687Z,20.22
2022-08-12T22:00:19.868Z,20.20
2022-08-12T22:04:03.591Z,20.17
2022-08-12T22:07:06.916Z,20.18
2022-08-12T22:10:12.538Z,20.19
2022-08-12T22:14:02.134Z,20.14
2022-08-12T22:16:47.130Z,20.14
2022-08-12T22:19:50.874Z,20.16
2022-08-12T22:22:56.827Z,20.18
2022-08-12T22:26:00.813Z,20.13
2022-08-12T22:29:22.335Z,20.08
2022-08-12T22:32:30.136Z,20.07
2022-08-12T22:35:55.680Z,19.99
2022-08-12T22:38:59.938Z,19.96
2022-08-12T22:42:20.933Z,19.94
2022-08-12T22:45:59.017Z,19.87
2022-08-12T22:49:06.747Z,19.83
2022-08-12T22:52:13.126Z,19.77
2022-08-12T22:55:17.471Z,19.74
2022-08-12T22:58:41.613Z,19.68
2022-08-12T23:01:52.456Z,19.63
2022-08-12T23:05:10.334Z,19.59
2022-08-12T23:08:17.604Z,19.56
2022-08-12T23:11:23.344Z,19.51
2022-08-12T23:14:30.379Z,19.47
2022-08-12T23:17:40.583Z,19.40
2022-08-12T23:20:46.493Z,19.32
2022-08-12T23:24:09.734Z,19.22
2022-08-12T23:27:51.119Z,19.08
2022-08-12T23:31:04.260Z,18.95
2022-08-12T23:34:08.563Z,18.85
2022-08-12T23:37:13.983Z,18.74
2022-08-12T23:40:21.962Z,18.71
2022-08-12T23:43:27.291Z,18.58
2022-08-12T23:46:44.128Z,18.51
2022-08-12T23:49:56.265Z,18.40
2022-08-12T23:53:06.590Z,18.31
2022-08-12T23:56:20.958Z,18.20
2022-08-12T23:59:29.671Z,18.18
